EYVI/VNO METAR and TAF weather

Enter ICAO airport designator
Station Type Date Time Source
EYVI METAR 2023/02/06 19:50 UTC NOAA

EYVI 061950Z 30007KT 4400 SN BKN007 OVC030 M01/M02 Q1033 TEMPO 0600 +SN OVC002


Station Type Date Time Source
EYVI Decoded METAR 2023/02/06 19:50 UTC NOAA

Vilnius, Lithuania (EYVI) 54-38N 025-06E 156M
Feb 06, 2023 - 02:50 PM EST / 2023.02.06 1950 UTC
Wind: from the WNW (300 degrees) at 8 MPH (7 KT):0
Visibility: 2 mile(s):0
Sky conditions: overcast
Weather: snow
Temperature: 30 F (-1 C)
Windchill: 23 F (-5 C):1
Dew Point: 28 F (-2 C)
Relative Humidity: 92%
Pressure (altimeter): 30.50 in. Hg (1033 hPa)
ob: EYVI 061950Z 30007KT 4400 SN BKN007 OVC030 M01/M02 Q1033 TEMPO 0600 +SN OVC002
cycle: 20

Station Type Date Time Source
EYVI TAF 2023/02/06 18:27 UTC NOAA

TAF EYVI 061725Z 0618/0718 VRB05KT 5000 BR OVC005
TEMPO 0618/0706 1500 SN -FZDZ OVC002
TEMPO 0706/0709 SN BKN002
BECMG 0709/0711 9000 NSW OVC015
TEMPO 0711/0718 OVC010

Example: see airport list